createdAt,value
2023-06-09T00:02:08.667Z,1.85
2023-06-09T00:04:37.021Z,1.80
2023-06-09T00:07:04.644Z,1.80
2023-06-09T00:09:31.881Z,1.80
2023-06-09T00:11:59.523Z,2.00
2023-06-09T00:14:26.283Z,2.00
2023-06-09T00:16:53.347Z,1.92
2023-06-09T00:19:20.810Z,1.83
2023-06-09T00:21:51.185Z,1.90
2023-06-09T00:24:22.880Z,2.00
2023-06-09T00:26:51.203Z,2.08
2023-06-09T00:29:19.603Z,1.90
2023-06-09T00:31:47.276Z,1.80
2023-06-09T00:34:14.148Z,2.05
2023-06-09T00:36:41.404Z,1.85
2023-06-09T00:39:09.102Z,2.00
2023-06-09T00:41:37.661Z,1.92
2023-06-09T00:44:04.787Z,2.00
2023-06-09T00:46:32.166Z,1.80
2023-06-09T00:48:59.083Z,2.05
2023-06-09T00:51:26.745Z,2.03
2023-06-09T00:53:53.880Z,1.80
2023-06-09T00:56:24.489Z,2.05
2023-06-09T00:58:52.004Z,2.30
2023-06-09T01:01:19.368Z,2.00
2023-06-09T01:03:48.423Z,2.03
2023-06-09T01:06:47.605Z,2.00
2023-06-09T01:09:32.081Z,1.80
2023-06-09T01:12:11.288Z,1.80
2023-06-09T01:14:48.026Z,1.85
2023-06-09T01:17:19.505Z,1.92
2023-06-09T01:19:52.825Z,2.00
2023-06-09T01:22:45.661Z,2.00
2023-06-09T01:25:43.047Z,1.80
2023-06-09T01:28:17.531Z,1.80
2023-06-09T01:30:47.675Z,2.00
2023-06-09T01:33:18.619Z,1.80
2023-06-09T01:35:46.897Z,1.88
2023-06-09T01:38:16.038Z,1.80
2023-06-09T01:40:44.876Z,1.92
2023-06-09T01:43:12.928Z,2.00
2023-06-09T01:45:39.666Z,1.73
2023-06-09T01:48:31.825Z,2.00
2023-06-09T01:51:09.501Z,1.88
2023-06-09T01:53:38.492Z,2.00
2023-06-09T01:56:28.700Z,2.10
2023-06-09T01:58:58.746Z,1.80
2023-06-09T02:01:27.322Z,1.88
2023-06-09T02:03:56.282Z,1.80
2023-06-09T02:06:24.145Z,2.00
2023-06-09T02:08:51.435Z,1.60
2023-06-09T02:11:18.375Z,1.90
2023-06-09T02:13:56.493Z,2.03
2023-06-09T02:16:25.573Z,2.10
2023-06-09T02:18:53.290Z,1.77
2023-06-09T02:21:20.219Z,1.98
2023-06-09T02:23:46.987Z,1.65
2023-06-09T02:26:14.927Z,2.05
2023-06-09T02:28:41.662Z,2.00
2023-06-09T02:31:09.054Z,2.10
2023-06-09T02:33:35.977Z,1.75
2023-06-09T02:36:02.873Z,2.03
2023-06-09T02:38:32.200Z,1.77
2023-06-09T02:40:59.181Z,1.80
2023-06-09T02:43:25.889Z,2.08
2023-06-09T02:45:53.532Z,2.00
2023-06-09T02:48:21.029Z,1.88
2023-06-09T02:50:47.862Z,1.95
2023-06-09T02:53:15.907Z,1.98
2023-06-09T02:55:46.190Z,1.80
2023-06-09T02:58:16.750Z,1.90
2023-06-09T03:00:47.222Z,2.00
2023-06-09T03:03:14.633Z,2.17
2023-06-09T03:05:45.545Z,1.90
2023-06-09T03:08:13.871Z,1.60
2023-06-09T03:10:42.808Z,1.85
2023-06-09T03:13:12.118Z,1.60
2023-06-09T03:15:44.089Z,1.90
2023-06-09T03:18:12.604Z,1.88
2023-06-09T03:20:39.988Z,1.67
2023-06-09T03:23:10.529Z,1.98
2023-06-09T03:25:40.255Z,1.80
2023-06-09T03:28:07.843Z,1.83
2023-06-09T03:30:36.721Z,1.90
2023-06-09T03:33:04.029Z,1.50
2023-06-09T03:35:30.874Z,1.65
2023-06-09T03:37:58.575Z,1.90
2023-06-09T03:40:26.076Z,1.70
2023-06-09T03:42:52.867Z,1.77
2023-06-09T03:45:19.597Z,1.90
2023-06-09T03:47:46.800Z,1.75
2023-06-09T03:50:13.675Z,1.70
2023-06-09T03:52:41.439Z,1.42
2023-06-09T03:55:09.130Z,1.80
2023-06-09T03:57:37.379Z,1.70
2023-06-09T04:00:06.649Z,1.52
2023-06-09T04:02:43.616Z,1.83
2023-06-09T04:05:11.410Z,1.40
2023-06-09T04:07:38.157Z,1.88
2023-06-09T04:10:05.971Z,2.08
2023-06-09T04:12:32.958Z,1.70
2023-06-09T04:15:00.978Z,1.50
2023-06-09T04:17:28.886Z,1.67
2023-06-09T04:19:56.128Z,1.50
2023-06-09T04:22:24.353Z,1.85
2023-06-09T04:24:51.073Z,1.50
2023-06-09T04:27:20.493Z,1.85
2023-06-09T04:29:47.999Z,1.63
2023-06-09T04:32:15.660Z,1.73
2023-06-09T04:34:42.616Z,1.80
2023-06-09T04:37:13.956Z,1.67
2023-06-09T04:39:42.720Z,1.48
2023-06-09T04:42:10.391Z,1.75
2023-06-09T04:44:37.250Z,1.60
2023-06-09T04:47:04.521Z,1.60
2023-06-09T04:49:32.314Z,1.65
2023-06-09T04:52:00.328Z,1.48
2023-06-09T04:54:31.720Z,1.42
2023-06-09T04:57:04.284Z,1.65
2023-06-09T04:59:32.940Z,1.75
2023-06-09T05:02:00.020Z,1.48
2023-06-09T05:04:27.606Z,1.60
2023-06-09T05:06:56.235Z,1.67
2023-06-09T05:09:23.220Z,1.67
2023-06-09T05:11:50.305Z,1.70
2023-06-09T05:14:17.767Z,1.52
2023-06-09T05:16:47.156Z,1.70
2023-06-09T05:19:14.927Z,1.67
2023-06-09T05:21:42.490Z,1.70
2023-06-09T05:24:09.655Z,1.50
2023-06-09T05:26:36.457Z,1.60
2023-06-09T05:29:03.416Z,1.70
2023-06-09T05:31:31.075Z,1.75
2023-06-09T05:33:57.991Z,1.70
2023-06-09T05:36:24.746Z,1.80
2023-06-09T05:38:53.698Z,1.75
2023-06-09T05:41:20.588Z,2.00
2023-06-09T05:43:47.309Z,1.75
2023-06-09T05:46:14.053Z,2.17
2023-06-09T05:48:40.780Z,1.92
2023-06-09T05:51:07.602Z,2.00
2023-06-09T05:53:35.174Z,1.80
2023-06-09T05:56:02.004Z,2.00
2023-06-09T05:58:29.172Z,1.88
2023-06-09T06:00:59.039Z,2.10
2023-06-09T06:03:26.205Z,2.05
2023-06-09T06:05:53.260Z,2.15
2023-06-09T06:08:19.928Z,2.10
2023-06-09T06:10:46.771Z,1.83
2023-06-09T06:13:14.466Z,2.20
2023-06-09T06:15:41.179Z,2.10
2023-06-09T06:18:08.650Z,2.00
2023-06-09T06:20:35.459Z,2.05
2023-06-09T06:23:02.329Z,2.20
2023-06-09T06:25:30.096Z,2.10
2023-06-09T06:27:57.459Z,1.90
2023-06-09T06:30:24.180Z,2.00
2023-06-09T06:32:52.803Z,2.08
2023-06-09T06:35:29.910Z,2.10
2023-06-09T06:37:57.554Z,1.92
2023-06-09T06:40:25.220Z,2.05
2023-06-09T06:42:52.500Z,1.88
2023-06-09T06:45:27.645Z,1.90
2023-06-09T06:47:55.036Z,1.98
2023-06-09T06:50:24.019Z,1.80
2023-06-09T06:52:52.702Z,2.10
2023-06-09T06:55:19.552Z,1.90
2023-06-09T06:57:46.655Z,2.00
2023-06-09T07:00:15.570Z,2.15
2023-06-09T07:02:48.086Z,1.95
2023-06-09T07:05:16.461Z,1.80
2023-06-09T07:07:44.810Z,2.10
2023-06-09T07:10:12.061Z,1.85
2023-06-09T07:12:38.989Z,2.00
2023-06-09T07:15:06.375Z,2.17
2023-06-09T07:17:33.395Z,1.92
2023-06-09T07:20:01.127Z,1.88
2023-06-09T07:22:28.488Z,2.20
2023-06-09T07:24:55.523Z,2.20
2023-06-09T07:27:23.105Z,2.05
2023-06-09T07:29:49.799Z,2.08
2023-06-09T07:32:16.751Z,2.10
2023-06-09T07:34:44.227Z,2.17
2023-06-09T07:37:11.013Z,1.90
2023-06-09T07:39:38.002Z,2.10
2023-06-09T07:42:05.085Z,2.10
2023-06-09T07:44:31.886Z,2.20
2023-06-09T07:46:58.726Z,1.80
2023-06-09T07:49:25.534Z,1.85
2023-06-09T07:51:53.470Z,2.17
2023-06-09T07:54:21.195Z,1.92
2023-06-09T07:56:50.430Z,1.90
2023-06-09T07:59:18.757Z,1.95
2023-06-09T08:01:46.164Z,2.30
2023-06-09T08:04:13.307Z,1.90
2023-06-09T08:06:40.537Z,1.90
2023-06-09T08:09:08.349Z,2.15
2023-06-09T08:11:35.165Z,1.90
2023-06-09T08:14:01.840Z,2.08
2023-06-09T08:16:28.554Z,1.77
2023-06-09T08:18:55.398Z,1.92
2023-06-09T08:21:22.262Z,2.00
2023-06-09T08:23:49.152Z,1.92
2023-06-09T08:26:15.956Z,1.80
2023-06-09T08:28:42.818Z,1.90
2023-06-09T08:31:10.217Z,1.80
2023-06-09T08:33:37.433Z,1.80
2023-06-09T08:36:05.224Z,2.00
2023-06-09T08:38:33.568Z,2.00
2023-06-09T08:41:09.558Z,1.90
2023-06-09T08:46:08.871Z,1.95
2023-06-09T08:48:39.041Z,1.92
2023-06-09T08:51:06.011Z,1.98
2023-06-09T08:53:33.296Z,2.17
2023-06-09T08:56:01.300Z,1.80
2023-06-09T08:58:29.294Z,1.90
2023-06-09T09:00:56.544Z,1.70
2023-06-09T09:03:23.593Z,1.73
2023-06-09T09:05:50.957Z,1.80
2023-06-09T09:08:20.346Z,1.80
2023-06-09T09:10:47.292Z,1.88
2023-06-09T09:13:14.766Z,1.90
2023-06-09T09:15:50.632Z,1.90
2023-06-09T09:18:18.533Z,1.92
2023-06-09T09:20:45.768Z,1.73
2023-06-09T09:23:12.896Z,2.00
2023-06-09T09:25:39.886Z,1.80
2023-06-09T09:28:11.532Z,1.88
2023-06-09T09:30:55.821Z,1.83
2023-06-09T09:33:24.136Z,2.00
2023-06-09T09:36:00.472Z,2.10
2023-06-09T09:38:31.503Z,2.10
2023-06-09T09:41:00.597Z,2.10
2023-06-09T09:43:30.770Z,2.22
2023-06-09T09:46:02.226Z,2.03
2023-06-09T09:48:29.043Z,2.00
2023-06-09T09:50:59.267Z,2.10
2023-06-09T09:53:27.615Z,2.10
2023-06-09T09:55:57.661Z,1.95
2023-06-09T09:58:34.786Z,2.40
2023-06-09T10:01:05.565Z,2.00
2023-06-09T10:03:34.393Z,2.22
2023-06-09T10:06:03.958Z,2.05
2023-06-09T10:08:32.568Z,2.22
2023-06-09T10:11:03.765Z,1.73
2023-06-09T10:13:30.851Z,2.20
2023-06-09T10:15:58.816Z,2.30
2023-06-09T10:18:25.875Z,2.00
2023-06-09T10:20:55.634Z,2.10
2023-06-09T10:23:23.011Z,1.95
2023-06-09T10:25:50.669Z,2.03
2023-06-09T10:28:19.159Z,2.10
2023-06-09T10:30:48.337Z,2.15
2023-06-09T10:33:27.600Z,2.30
2023-06-09T10:35:58.324Z,2.10
2023-06-09T10:38:31.702Z,2.20
2023-06-09T10:41:31.958Z,2.30
2023-06-09T10:44:01.522Z,2.20
2023-06-09T10:46:49.193Z,1.90
2023-06-09T10:49:25.850Z,1.90
2023-06-09T10:51:56.155Z,2.25
2023-06-09T10:54:26.273Z,1.95
2023-06-09T10:56:55.045Z,1.98
2023-06-09T10:59:27.600Z,2.08
2023-06-09T11:02:06.590Z,2.05
2023-06-09T11:04:45.870Z,2.17
2023-06-09T11:07:28.663Z,2.25
2023-06-09T11:09:58.448Z,2.38
2023-06-09T11:12:40.456Z,2.30
2023-06-09T11:15:08.872Z,2.05
2023-06-09T11:17:43.250Z,2.38
2023-06-09T11:20:10.423Z,2.30
2023-06-09T11:22:43.805Z,2.20
2023-06-09T11:25:19.721Z,2.08
2023-06-09T11:28:10.511Z,1.98
2023-06-09T11:31:01.553Z,2.30
2023-06-09T11:33:48.962Z,2.00
2023-06-09T11:36:27.100Z,2.10
2023-06-09T11:38:59.012Z,2.45
2023-06-09T11:41:26.576Z,2.40
2023-06-09T11:43:55.719Z,2.30
2023-06-09T11:46:23.480Z,2.10
2023-06-09T11:49:08.355Z,1.92
2023-06-09T11:51:55.146Z,2.10
2023-06-09T11:54:22.497Z,2.20
2023-06-09T11:56:49.396Z,2.22
2023-06-09T11:59:27.385Z,2.20
2023-06-09T12:01:57.480Z,2.50
2023-06-09T12:04:24.235Z,2.05
2023-06-09T12:06:51.183Z,2.17
2023-06-09T12:09:21.182Z,2.13
2023-06-09T12:11:54.832Z,2.00
2023-06-09T12:14:22.543Z,2.67
2023-06-09T12:16:50.987Z,2.47
2023-06-09T12:19:20.625Z,2.33
2023-06-09T12:21:48.909Z,2.33
2023-06-09T12:24:16.597Z,2.35
2023-06-09T12:26:51.390Z,2.30
2023-06-09T12:29:25.996Z,2.40
2023-06-09T12:31:53.224Z,2.35
2023-06-09T12:34:25.343Z,2.70
2023-06-09T12:36:52.147Z,2.45
2023-06-09T12:39:23.639Z,2.47
2023-06-09T12:41:50.544Z,2.58
2023-06-09T12:44:25.119Z,2.50
2023-06-09T12:46:58.000Z,2.35
2023-06-09T12:49:33.997Z,2.90
2023-06-09T12:54:28.900Z,2.67
2023-06-09T12:56:57.007Z,2.50
2023-06-09T12:59:24.714Z,2.30
2023-06-09T13:01:53.836Z,2.58
2023-06-09T13:04:21.534Z,2.17
2023-06-09T13:06:48.835Z,2.45
2023-06-09T13:09:15.603Z,2.08
2023-06-09T13:11:42.749Z,2.60
2023-06-09T13:14:09.672Z,2.10
2023-06-09T13:16:36.556Z,2.40
2023-06-09T13:19:03.374Z,2.60
2023-06-09T13:21:43.817Z,2.53
2023-06-09T13:24:12.956Z,3.38
2023-06-09T13:26:40.275Z,2.28
2023-06-09T13:29:07.838Z,2.50
2023-06-09T13:31:34.652Z,2.80
2023-06-09T13:34:01.500Z,2.78
2023-06-09T13:36:28.250Z,2.50
2023-06-09T13:38:55.065Z,2.70
2023-06-09T13:41:23.448Z,2.60
2023-06-09T13:43:51.506Z,2.60
2023-06-09T13:46:19.463Z,2.40
2023-06-09T13:48:46.440Z,2.70
2023-06-09T13:51:13.290Z,2.50
2023-06-09T13:53:40.134Z,2.70
2023-06-09T13:56:06.856Z,2.70
2023-06-09T13:58:37.010Z,2.33
2023-06-09T14:01:04.055Z,2.42
2023-06-09T14:03:30.886Z,2.83
2023-06-09T14:05:57.765Z,3.08
2023-06-09T14:08:24.611Z,2.50
2023-06-09T14:10:51.364Z,2.65
2023-06-09T14:13:18.114Z,2.45
2023-06-09T14:15:44.943Z,2.50
2023-06-09T14:18:11.813Z,2.50
2023-06-09T14:20:38.599Z,2.80
2023-06-09T14:23:09.776Z,2.42
2023-06-09T14:25:37.209Z,2.60
2023-06-09T14:28:04.249Z,2.63
2023-06-09T14:30:31.495Z,2.55
2023-06-09T14:32:58.342Z,2.55
2023-06-09T14:35:27.185Z,2.45
2023-06-09T14:37:55.100Z,2.90
2023-06-09T14:40:22.989Z,2.58
2023-06-09T14:42:50.556Z,2.55
2023-06-09T14:45:22.794Z,2.67
2023-06-09T14:47:55.502Z,2.60
2023-06-09T14:50:27.593Z,2.83
2023-06-09T14:52:59.044Z,2.78
2023-06-09T14:55:28.268Z,2.53
2023-06-09T14:57:57.286Z,2.35
2023-06-09T15:00:26.136Z,2.50
2023-06-09T15:02:57.498Z,2.58
2023-06-09T15:05:26.324Z,2.60
2023-06-09T15:07:58.241Z,2.38
2023-06-09T15:10:29.806Z,2.40
2023-06-09T15:12:57.172Z,2.80
2023-06-09T15:15:28.434Z,2.60
2023-06-09T15:17:59.802Z,2.70
2023-06-09T15:20:30.083Z,2.33
2023-06-09T15:22:59.415Z,2.38
2023-06-09T15:25:30.713Z,2.58
2023-06-09T15:28:01.208Z,2.45
2023-06-09T15:30:32.119Z,2.40
2023-06-09T15:33:02.885Z,2.65
2023-06-09T15:35:38.219Z,2.53
2023-06-09T15:38:06.980Z,2.60
2023-06-09T15:40:38.690Z,2.63
2023-06-09T15:43:06.150Z,2.85
2023-06-09T15:45:40.545Z,2.35
2023-06-09T15:48:08.436Z,2.72
2023-06-09T15:50:36.727Z,2.33
2023-06-09T15:53:04.871Z,2.20
2023-06-09T15:55:31.709Z,2.53
2023-06-09T15:57:58.411Z,2.20
2023-06-09T16:00:25.104Z,2.45
2023-06-09T16:02:51.900Z,2.47
2023-06-09T16:05:18.862Z,2.50
2023-06-09T16:07:45.869Z,2.50
2023-06-09T16:10:12.687Z,2.42
2023-06-09T16:12:39.560Z,2.40
2023-06-09T16:15:07.070Z,2.33
2023-06-09T16:17:34.070Z,2.50
2023-06-09T16:20:02.549Z,2.47
2023-06-09T16:22:29.346Z,2.53
2023-06-09T16:24:58.922Z,2.60
2023-06-09T16:27:25.851Z,2.13
2023-06-09T16:29:54.163Z,2.45
2023-06-09T16:32:21.259Z,2.58
2023-06-09T16:34:48.043Z,2.55
2023-06-09T16:37:14.836Z,2.65
2023-06-09T16:39:41.590Z,2.45
2023-06-09T16:42:08.653Z,2.50
2023-06-09T16:44:35.372Z,2.40
2023-06-09T16:47:02.084Z,2.60
2023-06-09T16:49:28.793Z,2.67
2023-06-09T16:51:59.771Z,2.80
2023-06-09T16:54:26.835Z,2.90
2023-06-09T16:56:53.625Z,2.60
2023-06-09T16:59:20.394Z,2.42
2023-06-09T17:01:47.130Z,2.53
2023-06-09T17:04:13.988Z,2.40
2023-06-09T17:06:40.992Z,2.35
2023-06-09T17:09:07.735Z,2.55
2023-06-09T17:11:34.461Z,2.45
2023-06-09T17:14:01.167Z,2.90
2023-06-09T17:16:27.943Z,2.80
2023-06-09T17:18:54.713Z,2.58
2023-06-09T17:21:21.442Z,2.65
2023-06-09T17:23:48.184Z,2.95
2023-06-09T17:26:14.995Z,2.50
2023-06-09T17:28:42.154Z,3.00
2023-06-09T17:31:08.931Z,2.78
2023-06-09T17:33:35.630Z,2.90
2023-06-09T17:36:02.452Z,2.60
2023-06-09T17:38:29.184Z,2.70
2023-06-09T17:40:55.903Z,2.72
2023-06-09T17:43:22.712Z,2.70
2023-06-09T17:45:49.462Z,2.90
2023-06-09T17:48:16.226Z,2.83
2023-06-09T17:50:42.926Z,2.95
2023-06-09T17:53:09.713Z,2.83
2023-06-09T17:55:36.521Z,2.88
2023-06-09T17:58:03.369Z,2.75
2023-06-09T18:00:30.089Z,2.83
2023-06-09T18:02:57.174Z,3.00
2023-06-09T18:05:24.112Z,2.90
2023-06-09T18:07:50.862Z,2.80
2023-06-09T18:10:17.916Z,2.90
2023-06-09T18:12:44.834Z,2.80
2023-06-09T18:15:11.768Z,2.75
2023-06-09T18:17:38.725Z,2.55
2023-06-09T18:20:07.347Z,2.95
2023-06-09T18:22:34.180Z,3.20
2023-06-09T18:25:01.114Z,2.90
2023-06-09T18:27:27.985Z,2.90
2023-06-09T18:29:54.755Z,2.92
2023-06-09T18:32:21.882Z,3.08
2023-06-09T18:34:50.394Z,2.90
2023-06-09T18:37:17.409Z,2.70
2023-06-09T18:39:44.228Z,2.78
2023-06-09T18:42:11.132Z,2.83
2023-06-09T18:44:37.874Z,2.65
2023-06-09T18:47:04.976Z,3.08
2023-06-09T18:49:31.787Z,2.67
2023-06-09T18:51:58.609Z,2.72
2023-06-09T18:54:25.329Z,2.72
2023-06-09T18:56:52.452Z,2.53
2023-06-09T18:59:19.255Z,2.70
2023-06-09T19:01:46.124Z,2.75
2023-06-09T19:04:12.863Z,2.63
2023-06-09T19:06:41.461Z,2.90
2023-06-09T19:09:09.302Z,2.85
2023-06-09T19:11:36.058Z,3.05
2023-06-09T19:14:02.894Z,2.70
2023-06-09T19:16:29.841Z,2.55
2023-06-09T19:18:56.657Z,2.58
2023-06-09T19:21:23.388Z,2.55
2023-06-09T19:23:54.479Z,3.17
2023-06-09T19:26:24.635Z,3.10
2023-06-09T19:28:51.457Z,2.88
2023-06-09T19:31:18.370Z,2.65
2023-06-09T19:33:45.125Z,3.05
2023-06-09T19:36:12.108Z,3.03
2023-06-09T19:38:38.798Z,3.00
2023-06-09T19:41:05.684Z,2.70
2023-06-09T19:43:32.423Z,2.90
2023-06-09T19:46:00.900Z,3.17
2023-06-09T19:48:27.699Z,2.97
2023-06-09T19:50:54.452Z,2.78
2023-06-09T19:53:21.150Z,2.65
2023-06-09T19:55:48.122Z,2.90
2023-06-09T19:58:14.841Z,3.13
2023-06-09T20:00:41.593Z,3.03
2023-06-09T20:03:08.359Z,3.17
2023-06-09T20:05:35.306Z,2.88
2023-06-09T20:08:02.140Z,3.28
2023-06-09T20:10:29.547Z,3.22
2023-06-09T20:12:56.362Z,3.00
2023-06-09T20:15:23.057Z,3.30
2023-06-09T20:17:49.863Z,3.15
2023-06-09T20:20:16.755Z,3.20
2023-06-09T20:22:44.342Z,3.03
2023-06-09T20:25:11.506Z,3.22
2023-06-09T20:27:38.388Z,3.33
2023-06-09T20:30:05.604Z,2.85
2023-06-09T20:32:32.482Z,3.33
2023-06-09T20:34:59.519Z,3.28
2023-06-09T20:37:26.286Z,3.10
2023-06-09T20:39:52.987Z,3.10
2023-06-09T20:42:19.726Z,3.58
2023-06-09T20:44:47.242Z,3.08
2023-06-09T20:47:13.949Z,3.35
2023-06-09T20:49:41.826Z,3.80
2023-06-09T20:52:08.946Z,3.33
2023-06-09T20:54:36.729Z,3.30
2023-06-09T20:57:04.082Z,3.60
2023-06-09T20:59:30.986Z,3.38
2023-06-09T21:01:57.895Z,3.50
2023-06-09T21:04:24.661Z,3.67
2023-06-09T21:06:52.019Z,3.67
2023-06-09T21:09:20.820Z,3.70
2023-06-09T21:11:47.932Z,3.63
2023-06-09T21:14:14.722Z,3.75
2023-06-09T21:16:44.242Z,3.55
2023-06-09T21:19:11.840Z,3.70
2023-06-09T21:21:38.588Z,3.70
2023-06-09T21:24:05.835Z,3.90
2023-06-09T21:26:32.629Z,3.90
2023-06-09T21:29:01.098Z,3.58
2023-06-09T21:31:29.108Z,3.75
2023-06-09T21:33:55.826Z,4.03
2023-06-09T21:36:22.536Z,3.90
2023-06-09T21:38:49.350Z,4.40
2023-06-09T21:41:16.081Z,3.83
2023-06-09T21:43:43.452Z,3.97
2023-06-09T21:46:10.260Z,4.20
2023-06-09T21:48:36.985Z,4.68
2023-06-09T21:51:03.799Z,4.40
2023-06-09T21:53:30.520Z,4.40
2023-06-09T21:55:57.222Z,4.40
2023-06-09T21:58:23.946Z,3.92
2023-06-09T22:00:50.666Z,4.25
2023-06-09T22:03:17.460Z,4.13
2023-06-09T22:05:46.066Z,4.28
2023-06-09T22:08:12.778Z,4.28
2023-06-09T22:10:39.511Z,4.10
2023-06-09T22:13:07.297Z,4.18
2023-06-09T22:15:34.084Z,4.35
2023-06-09T22:18:01.062Z,4.28
2023-06-09T22:20:29.111Z,4.78
2023-06-09T22:22:55.979Z,4.47
2023-06-09T22:25:22.856Z,4.40
2023-06-09T22:27:49.686Z,4.10
2023-06-09T22:30:16.544Z,4.40
2023-06-09T22:32:43.390Z,4.10
2023-06-09T22:35:10.654Z,4.47
2023-06-09T22:37:37.759Z,4.10
2023-06-09T22:40:05.023Z,4.30
2023-06-09T22:42:31.850Z,4.68
2023-06-09T22:44:58.553Z,4.18
2023-06-09T22:47:25.274Z,4.35
2023-06-09T22:50:05.508Z,4.47
2023-06-09T22:52:33.265Z,4.32
2023-06-09T22:55:00.252Z,4.20
2023-06-09T22:57:27.390Z,4.68
2023-06-09T22:59:54.211Z,4.50
2023-06-09T23:02:22.703Z,4.40
2023-06-09T23:04:52.979Z,4.63
2023-06-09T23:07:22.435Z,4.35
2023-06-09T23:09:49.273Z,4.10
2023-06-09T23:12:16.504Z,4.15
2023-06-09T23:14:43.400Z,4.35
2023-06-09T23:17:10.627Z,4.10
2023-06-09T23:19:39.690Z,4.38
2023-06-09T23:22:15.248Z,4.40
2023-06-09T23:24:42.643Z,4.00
2023-06-09T23:27:10.141Z,4.25
2023-06-09T23:29:37.061Z,3.90
2023-06-09T23:32:05.395Z,4.40
2023-06-09T23:34:32.614Z,4.50
2023-06-09T23:36:59.353Z,4.03
2023-06-09T23:39:26.085Z,4.20
2023-06-09T23:41:52.776Z,4.70
2023-06-09T23:44:19.571Z,4.30
2023-06-09T23:46:46.242Z,4.00
2023-06-09T23:49:13.164Z,4.05
2023-06-09T23:51:39.935Z,4.03
2023-06-09T23:54:08.321Z,4.05
2023-06-09T23:56:35.020Z,4.50
2023-06-09T23:59:01.750Z,4.00
